sensor_id;sensor_type;location;lat;lon;timestamp;P1;durP1;ratioP1;P2;durP2;ratioP2
42886;SDS011;29032;56.028;92.904;2024-03-22T00:00:00;3.87;;;2.10;;
42886;SDS011;29032;56.028;92.904;2024-03-22T00:05:03;6.77;;;3.07;;
42886;SDS011;29032;56.028;92.904;2024-03-22T00:10:07;7.40;;;3.10;;
42886;SDS011;29032;56.028;92.904;2024-03-22T00:15:09;6.13;;;3.20;;
42886;SDS011;29032;56.028;92.904;2024-03-22T00:20:11;9.27;;;4.20;;
42886;SDS011;29032;56.028;92.904;2024-03-22T00:25:15;4.53;;;2.87;;
42886;SDS011;29032;56.028;92.904;2024-03-22T00:30:17;2.73;;;1.87;;
42886;SDS011;29032;56.028;92.904;2024-03-22T00:35:19;2.60;;;1.93;;
42886;SDS011;29032;56.028;92.904;2024-03-22T00:40:23;4.43;;;1.90;;
42886;SDS011;29032;56.028;92.904;2024-03-22T00:45:25;8.33;;;3.03;;
42886;SDS011;29032;56.028;92.904;2024-03-22T00:50:27;4.80;;;2.50;;
42886;SDS011;29032;56.028;92.904;2024-03-22T00:55:31;5.53;;;2.67;;
42886;SDS011;29032;56.028;92.904;2024-03-22T01:00:33;10.13;;;3.83;;
42886;SDS011;29032;56.028;92.904;2024-03-22T01:05:35;9.00;;;3.10;;
42886;SDS011;29032;56.028;92.904;2024-03-22T01:10:39;9.50;;;3.50;;
42886;SDS011;29032;56.028;92.904;2024-03-22T01:15:42;7.17;;;3.30;;
42886;SDS011;29032;56.028;92.904;2024-03-22T01:20:44;5.60;;;3.03;;
42886;SDS011;29032;56.028;92.904;2024-03-22T01:25:48;9.43;;;4.83;;
42886;SDS011;29032;56.028;92.904;2024-03-22T01:30:50;11.30;;;4.37;;
42886;SDS011;29032;56.028;92.904;2024-03-22T01:35:52;10.60;;;5.03;;
42886;SDS011;29032;56.028;92.904;2024-03-22T01:40:56;15.63;;;5.50;;
42886;SDS011;29032;56.028;92.904;2024-03-22T01:45:58;15.20;;;5.27;;
42886;SDS011;29032;56.028;92.904;2024-03-22T01:51:00;11.13;;;4.90;;
42886;SDS011;29032;56.028;92.904;2024-03-22T01:56:05;13.30;;;5.30;;
42886;SDS011;29032;56.028;92.904;2024-03-22T02:01:08;13.93;;;4.67;;
42886;SDS011;29032;56.028;92.904;2024-03-22T02:06:10;15.97;;;5.87;;
42886;SDS011;29032;56.028;92.904;2024-03-22T02:11:14;12.23;;;5.13;;
42886;SDS011;29032;56.028;92.904;2024-03-22T02:16:16;9.37;;;4.33;;
42886;SDS011;29032;56.028;92.904;2024-03-22T02:21:18;10.57;;;4.67;;
42886;SDS011;29032;56.028;92.904;2024-03-22T02:26:22;7.93;;;3.80;;
42886;SDS011;29032;56.028;92.904;2024-03-22T02:31:24;8.00;;;3.17;;
42886;SDS011;29032;56.028;92.904;2024-03-22T02:36:26;7.10;;;2.87;;
42886;SDS011;29032;56.028;92.904;2024-03-22T02:41:30;8.10;;;2.87;;
42886;SDS011;29032;56.028;92.904;2024-03-22T02:46:32;7.60;;;2.60;;
42886;SDS011;29032;56.028;92.904;2024-03-22T02:51:34;5.43;;;2.57;;
42886;SDS011;29032;56.028;92.904;2024-03-22T02:56:38;3.87;;;2.57;;
42886;SDS011;29032;56.028;92.904;2024-03-22T03:01:40;3.80;;;2.10;;
42886;SDS011;29032;56.028;92.904;2024-03-22T03:06:42;5.07;;;2.43;;
42886;SDS011;29032;56.028;92.904;2024-03-22T03:11:46;6.40;;;3.23;;
42886;SDS011;29032;56.028;92.904;2024-03-22T03:16:48;6.10;;;2.77;;
42886;SDS011;29032;56.028;92.904;2024-03-22T03:21:50;5.00;;;3.00;;
42886;SDS011;29032;56.028;92.904;2024-03-22T03:26:54;6.03;;;2.47;;
42886;SDS011;29032;56.028;92.904;2024-03-22T03:31:56;5.63;;;2.10;;
42886;SDS011;29032;56.028;92.904;2024-03-22T03:36:58;3.57;;;2.30;;
42886;SDS011;29032;56.028;92.904;2024-03-22T03:42:02;5.37;;;2.50;;
42886;SDS011;29032;56.028;92.904;2024-03-22T03:47:04;9.23;;;3.83;;
42886;SDS011;29032;56.028;92.904;2024-03-22T03:52:06;4.13;;;2.33;;
42886;SDS011;29032;56.028;92.904;2024-03-22T03:57:10;6.83;;;3.20;;
42886;SDS011;29032;56.028;92.904;2024-03-22T04:02:12;5.07;;;2.37;;
42886;SDS011;29032;56.028;92.904;2024-03-22T04:07:14;4.13;;;2.30;;
42886;SDS011;29032;56.028;92.904;2024-03-22T04:12:18;8.40;;;3.77;;
42886;SDS011;29032;56.028;92.904;2024-03-22T04:17:20;6.00;;;3.07;;
42886;SDS011;29032;56.028;92.904;2024-03-22T04:22:22;7.00;;;3.17;;
42886;SDS011;29032;56.028;92.904;2024-03-22T04:27:26;6.13;;;3.97;;
42886;SDS011;29032;56.028;92.904;2024-03-22T04:32:28;9.57;;;3.80;;
42886;SDS011;29032;56.028;92.904;2024-03-22T04:37:30;8.63;;;3.80;;
42886;SDS011;29032;56.028;92.904;2024-03-22T04:42:34;6.33;;;3.13;;
42886;SDS011;29032;56.028;92.904;2024-03-22T04:47:36;11.03;;;4.33;;
42886;SDS011;29032;56.028;92.904;2024-03-22T04:52:38;8.90;;;4.03;;
42886;SDS011;29032;56.028;92.904;2024-03-22T04:57:42;7.33;;;4.20;;
42886;SDS011;29032;56.028;92.904;2024-03-22T05:02:44;7.27;;;3.47;;
42886;SDS011;29032;56.028;92.904;2024-03-22T05:07:46;8.73;;;3.97;;
42886;SDS011;29032;56.028;92.904;2024-03-22T05:12:50;7.03;;;3.70;;
42886;SDS011;29032;56.028;92.904;2024-03-22T05:17:52;6.93;;;4.10;;
42886;SDS011;29032;56.028;92.904;2024-03-22T05:22:55;9.07;;;3.67;;
42886;SDS011;29032;56.028;92.904;2024-03-22T05:27:59;9.10;;;3.90;;
42886;SDS011;29032;56.028;92.904;2024-03-22T05:33:01;6.80;;;3.40;;
42886;SDS011;29032;56.028;92.904;2024-03-22T05:38:03;8.83;;;4.00;;
42886;SDS011;29032;56.028;92.904;2024-03-22T05:43:07;13.83;;;5.60;;
42886;SDS011;29032;56.028;92.904;2024-03-22T05:48:09;7.63;;;3.50;;
42886;SDS011;29032;56.028;92.904;2024-03-22T05:53:11;8.47;;;3.60;;
42886;SDS011;29032;56.028;92.904;2024-03-22T05:58:15;8.90;;;3.33;;
42886;SDS011;29032;56.028;92.904;2024-03-22T06:03:17;5.73;;;2.97;;
42886;SDS011;29032;56.028;92.904;2024-03-22T06:08:19;7.20;;;3.60;;
42886;SDS011;29032;56.028;92.904;2024-03-22T06:13:23;4.67;;;2.60;;
42886;SDS011;29032;56.028;92.904;2024-03-22T06:18:25;8.50;;;2.77;;
42886;SDS011;29032;56.028;92.904;2024-03-22T06:23:27;5.97;;;3.27;;
42886;SDS011;29032;56.028;92.904;2024-03-22T06:28:31;7.67;;;3.13;;
42886;SDS011;29032;56.028;92.904;2024-03-22T06:33:33;5.80;;;2.77;;
42886;SDS011;29032;56.028;92.904;2024-03-22T06:38:35;7.37;;;2.57;;
42886;SDS011;29032;56.028;92.904;2024-03-22T06:43:39;3.90;;;2.43;;
42886;SDS011;29032;56.028;92.904;2024-03-22T06:48:41;6.57;;;2.60;;
42886;SDS011;29032;56.028;92.904;2024-03-22T06:53:43;7.87;;;2.60;;
42886;SDS011;29032;56.028;92.904;2024-03-22T06:58:47;4.83;;;2.53;;
42886;SDS011;29032;56.028;92.904;2024-03-22T07:03:49;5.70;;;2.37;;
42886;SDS011;29032;56.028;92.904;2024-03-22T07:08:52;6.63;;;2.50;;
42886;SDS011;29032;56.028;92.904;2024-03-22T07:14:13;5.53;;;2.50;;
42886;SDS011;29032;56.028;92.904;2024-03-22T07:19:15;5.10;;;2.70;;
42886;SDS011;29032;56.028;92.904;2024-03-22T07:24:18;7.17;;;2.93;;
42886;SDS011;29032;56.028;92.904;2024-03-22T07:29:21;6.87;;;3.20;;
42886;SDS011;29032;56.028;92.904;2024-03-22T07:34:23;6.63;;;3.20;;
42886;SDS011;29032;56.028;92.904;2024-03-22T07:39:26;6.20;;;3.20;;
42886;SDS011;29032;56.028;92.904;2024-03-22T07:44:30;8.23;;;3.10;;
42886;SDS011;29032;56.028;92.904;2024-03-22T07:49:32;6.87;;;3.23;;
42886;SDS011;29032;56.028;92.904;2024-03-22T07:54:34;5.07;;;3.00;;
42886;SDS011;29032;56.028;92.904;2024-03-22T07:59:38;6.73;;;3.30;;
42886;SDS011;29032;56.028;92.904;2024-03-22T08:04:40;5.57;;;3.30;;
42886;SDS011;29032;56.028;92.904;2024-03-22T08:09:42;10.53;;;3.53;;
42886;SDS011;29032;56.028;92.904;2024-03-22T08:14:46;4.83;;;2.10;;
42886;SDS011;29032;56.028;92.904;2024-03-22T08:19:48;4.47;;;2.63;;
42886;SDS011;29032;56.028;92.904;2024-03-22T08:24:50;5.53;;;2.30;;
42886;SDS011;29032;56.028;92.904;2024-03-22T08:29:54;4.47;;;2.33;;
42886;SDS011;29032;56.028;92.904;2024-03-22T08:34:56;8.60;;;4.30;;
42886;SDS011;29032;56.028;92.904;2024-03-22T08:39:58;9.83;;;3.40;;
42886;SDS011;29032;56.028;92.904;2024-03-22T08:45:02;10.03;;;4.37;;
42886;SDS011;29032;56.028;92.904;2024-03-22T08:50:06;8.50;;;4.17;;
42886;SDS011;29032;56.028;92.904;2024-03-22T08:55:09;10.10;;;5.03;;
42886;SDS011;29032;56.028;92.904;2024-03-22T09:00:13;15.00;;;5.50;;
42886;SDS011;29032;56.028;92.904;2024-03-22T09:05:15;8.77;;;4.40;;
42886;SDS011;29032;56.028;92.904;2024-03-22T09:10:17;8.83;;;4.47;;
42886;SDS011;29032;56.028;92.904;2024-03-22T09:15:21;10.87;;;4.83;;
42886;SDS011;29032;56.028;92.904;2024-03-22T09:20:23;11.10;;;3.83;;
42886;SDS011;29032;56.028;92.904;2024-03-22T09:25:25;13.17;;;5.00;;
42886;SDS011;29032;56.028;92.904;2024-03-22T09:30:30;9.57;;;4.27;;
42886;SDS011;29032;56.028;92.904;2024-03-22T09:35:33;6.03;;;3.73;;
42886;SDS011;29032;56.028;92.904;2024-03-22T09:40:36;9.23;;;3.40;;
42886;SDS011;29032;56.028;92.904;2024-03-22T09:45:41;13.17;;;4.37;;
42886;SDS011;29032;56.028;92.904;2024-03-22T09:50:45;13.80;;;5.47;;
42886;SDS011;29032;56.028;92.904;2024-03-22T09:55:48;13.20;;;5.20;;
42886;SDS011;29032;56.028;92.904;2024-03-22T10:00:52;11.77;;;5.33;;
42886;SDS011;29032;56.028;92.904;2024-03-22T10:05:54;12.13;;;5.50;;
42886;SDS011;29032;56.028;92.904;2024-03-22T10:10:56;12.93;;;5.97;;
42886;SDS011;29032;56.028;92.904;2024-03-22T10:21:21;9.43;;;4.77;;
42886;SDS011;29032;56.028;92.904;2024-03-22T10:26:23;11.57;;;4.63;;
42886;SDS011;29032;56.028;92.904;2024-03-22T10:31:26;10.40;;;4.60;;
42886;SDS011;29032;56.028;92.904;2024-03-22T10:36:29;5.90;;;3.80;;
42886;SDS011;29032;56.028;92.904;2024-03-22T10:41:33;6.57;;;3.93;;
42886;SDS011;29032;56.028;92.904;2024-03-22T10:46:36;11.43;;;4.10;;
42886;SDS011;29032;56.028;92.904;2024-03-22T10:51:39;8.77;;;4.77;;
42886;SDS011;29032;56.028;92.904;2024-03-22T10:56:43;11.20;;;3.70;;
42886;SDS011;29032;56.028;92.904;2024-03-22T11:01:48;7.17;;;3.60;;
42886;SDS011;29032;56.028;92.904;2024-03-22T11:06:51;7.47;;;3.73;;
42886;SDS011;29032;56.028;92.904;2024-03-22T11:11:53;8.47;;;3.70;;
42886;SDS011;29032;56.028;92.904;2024-03-22T11:16:58;9.13;;;3.30;;
42886;SDS011;29032;56.028;92.904;2024-03-22T11:22:01;8.43;;;4.43;;
42886;SDS011;29032;56.028;92.904;2024-03-22T11:27:07;10.43;;;4.50;;
42886;SDS011;29032;56.028;92.904;2024-03-22T11:32:12;9.60;;;5.30;;
42886;SDS011;29032;56.028;92.904;2024-03-22T11:37:14;7.13;;;4.77;;
42886;SDS011;29032;56.028;92.904;2024-03-22T11:42:16;6.70;;;4.23;;
42886;SDS011;29032;56.028;92.904;2024-03-22T11:47:21;7.87;;;3.87;;
42886;SDS011;29032;56.028;92.904;2024-03-22T11:52:24;11.40;;;4.00;;
42886;SDS011;29032;56.028;92.904;2024-03-22T11:57:27;6.10;;;4.10;;
42886;SDS011;29032;56.028;92.904;2024-03-22T12:02:33;12.40;;;4.20;;
42886;SDS011;29032;56.028;92.904;2024-03-22T12:07:35;9.27;;;4.83;;
42886;SDS011;29032;56.028;92.904;2024-03-22T12:12:37;5.70;;;3.50;;
42886;SDS011;29032;56.028;92.904;2024-03-22T12:17:41;10.03;;;4.10;;
42886;SDS011;29032;56.028;92.904;2024-03-22T12:22:43;11.10;;;4.40;;
42886;SDS011;29032;56.028;92.904;2024-03-22T12:27:46;12.17;;;4.30;;
42886;SDS011;29032;56.028;92.904;2024-03-22T12:32:50;8.50;;;4.43;;
42886;SDS011;29032;56.028;92.904;2024-03-22T12:37:52;12.70;;;4.90;;
42886;SDS011;29032;56.028;92.904;2024-03-22T12:42:54;8.93;;;4.87;;
42886;SDS011;29032;56.028;92.904;2024-03-22T12:47:58;11.93;;;5.47;;
42886;SDS011;29032;56.028;92.904;2024-03-22T12:53:00;12.23;;;5.70;;
42886;SDS011;29032;56.028;92.904;2024-03-22T12:58:02;9.27;;;5.17;;
42886;SDS011;29032;56.028;92.904;2024-03-22T13:03:06;15.20;;;7.10;;
42886;SDS011;29032;56.028;92.904;2024-03-22T13:08:08;11.50;;;4.93;;
42886;SDS011;29032;56.028;92.904;2024-03-22T13:13:10;10.43;;;5.47;;
42886;SDS011;29032;56.028;92.904;2024-03-22T13:18:14;11.40;;;5.47;;
42886;SDS011;29032;56.028;92.904;2024-03-22T13:23:16;12.53;;;6.30;;
42886;SDS011;29032;56.028;92.904;2024-03-22T13:28:18;18.20;;;7.10;;
42886;SDS011;29032;56.028;92.904;2024-03-22T13:33:22;13.87;;;6.20;;
42886;SDS011;29032;56.028;92.904;2024-03-22T13:38:24;15.77;;;7.60;;
42886;SDS011;29032;56.028;92.904;2024-03-22T13:43:26;14.00;;;6.90;;
42886;SDS011;29032;56.028;92.904;2024-03-22T13:48:30;16.77;;;8.40;;
42886;SDS011;29032;56.028;92.904;2024-03-22T13:53:33;17.60;;;9.80;;
42886;SDS011;29032;56.028;92.904;2024-03-22T13:58:35;19.47;;;10.30;;
42886;SDS011;29032;56.028;92.904;2024-03-22T14:03:39;24.60;;;11.83;;
42886;SDS011;29032;56.028;92.904;2024-03-22T14:08:41;18.07;;;10.70;;
42886;SDS011;29032;56.028;92.904;2024-03-22T14:13:43;21.83;;;9.77;;
42886;SDS011;29032;56.028;92.904;2024-03-22T14:18:47;20.33;;;9.93;;
42886;SDS011;29032;56.028;92.904;2024-03-22T14:23:49;22.80;;;10.43;;
42886;SDS011;29032;56.028;92.904;2024-03-22T14:28:51;26.97;;;11.10;;
42886;SDS011;29032;56.028;92.904;2024-03-22T14:33:55;25.60;;;11.53;;
42886;SDS011;29032;56.028;92.904;2024-03-22T14:38:57;17.50;;;9.53;;
42886;SDS011;29032;56.028;92.904;2024-03-22T14:44:18;22.20;;;11.13;;
42886;SDS011;29032;56.028;92.904;2024-03-22T14:49:21;24.87;;;12.20;;
42886;SDS011;29032;56.028;92.904;2024-03-22T14:54:24;21.43;;;11.10;;
42886;SDS011;29032;56.028;92.904;2024-03-22T14:59:27;22.83;;;12.30;;
42886;SDS011;29032;56.028;92.904;2024-03-22T15:04:31;25.20;;;11.13;;
42886;SDS011;29032;56.028;92.904;2024-03-22T15:09:33;22.50;;;11.50;;
42886;SDS011;29032;56.028;92.904;2024-03-22T15:14:35;24.57;;;12.20;;
42886;SDS011;29032;56.028;92.904;2024-03-22T15:19:38;25.67;;;12.37;;
42886;SDS011;29032;56.028;92.904;2024-03-22T15:24:40;30.80;;;15.60;;
42886;SDS011;29032;56.028;92.904;2024-03-22T15:29:43;35.73;;;14.87;;
42886;SDS011;29032;56.028;92.904;2024-03-22T15:34:47;42.43;;;17.00;;
42886;SDS011;29032;56.028;92.904;2024-03-22T15:39:49;42.40;;;19.63;;
42886;SDS011;29032;56.028;92.904;2024-03-22T15:44:52;51.17;;;21.70;;
42886;SDS011;29032;56.028;92.904;2024-03-22T15:49:56;64.73;;;27.10;;
42886;SDS011;29032;56.028;92.904;2024-03-22T15:54:58;86.33;;;34.97;;
42886;SDS011;29032;56.028;92.904;2024-03-22T16:00:00;81.93;;;32.10;;
42886;SDS011;29032;56.028;92.904;2024-03-22T16:05:04;70.40;;;31.83;;
42886;SDS011;29032;56.028;92.904;2024-03-22T16:15:27;84.13;;;34.63;;
42886;SDS011;29032;56.028;92.904;2024-03-22T16:20:30;78.57;;;33.20;;
42886;SDS011;29032;56.028;92.904;2024-03-22T16:25:33;61.60;;;25.13;;
42886;SDS011;29032;56.028;92.904;2024-03-22T16:30:36;83.97;;;33.53;;
42886;SDS011;29032;56.028;92.904;2024-03-22T16:35:40;69.13;;;28.87;;
42886;SDS011;29032;56.028;92.904;2024-03-22T16:40:42;51.00;;;24.93;;
42886;SDS011;29032;56.028;92.904;2024-03-22T16:45:44;49.80;;;21.93;;
42886;SDS011;29032;56.028;92.904;2024-03-22T16:50:49;54.37;;;24.17;;
42886;SDS011;29032;56.028;92.904;2024-03-22T16:55:51;66.30;;;28.03;;
42886;SDS011;29032;56.028;92.904;2024-03-22T17:00:53;68.70;;;27.77;;
42886;SDS011;29032;56.028;92.904;2024-03-22T17:05:57;61.60;;;26.97;;
42886;SDS011;29032;56.028;92.904;2024-03-22T17:10:59;45.67;;;21.43;;
42886;SDS011;29032;56.028;92.904;2024-03-22T17:16:01;28.00;;;12.73;;
42886;SDS011;29032;56.028;92.904;2024-03-22T17:21:05;28.63;;;11.97;;
42886;SDS011;29032;56.028;92.904;2024-03-22T17:26:08;34.57;;;14.03;;
42886;SDS011;29032;56.028;92.904;2024-03-22T17:31:10;36.13;;;14.47;;
42886;SDS011;29032;56.028;92.904;2024-03-22T17:36:14;39.83;;;16.57;;
42886;SDS011;29032;56.028;92.904;2024-03-22T17:41:17;36.70;;;13.30;;
42886;SDS011;29032;56.028;92.904;2024-03-22T17:46:19;34.70;;;14.23;;
42886;SDS011;29032;56.028;92.904;2024-03-22T17:51:22;31.00;;;12.90;;
42886;SDS011;29032;56.028;92.904;2024-03-22T17:56:25;25.73;;;12.50;;
42886;SDS011;29032;56.028;92.904;2024-03-22T18:01:27;27.13;;;12.17;;
42886;SDS011;29032;56.028;92.904;2024-03-22T18:06:31;32.70;;;13.10;;
42886;SDS011;29032;56.028;92.904;2024-03-22T18:11:33;52.63;;;24.33;;
42886;SDS011;29032;56.028;92.904;2024-03-22T18:16:35;71.73;;;29.23;;
42886;SDS011;29032;56.028;92.904;2024-03-22T18:21:39;63.10;;;27.93;;
42886;SDS011;29032;56.028;92.904;2024-03-22T18:26:41;64.03;;;29.60;;
42886;SDS011;29032;56.028;92.904;2024-03-22T18:31:43;62.60;;;28.53;;
42886;SDS011;29032;56.028;92.904;2024-03-22T18:36:47;54.93;;;26.00;;
42886;SDS011;29032;56.028;92.904;2024-03-22T18:41:49;53.40;;;25.70;;
42886;SDS011;29032;56.028;92.904;2024-03-22T18:46:51;48.50;;;23.00;;
42886;SDS011;29032;56.028;92.904;2024-03-22T18:51:54;45.40;;;19.10;;
42886;SDS011;29032;56.028;92.904;2024-03-22T18:56:57;42.73;;;21.63;;
42886;SDS011;29032;56.028;92.904;2024-03-22T19:01:59;41.70;;;19.40;;
42886;SDS011;29032;56.028;92.904;2024-03-22T19:07:02;42.43;;;16.70;;
42886;SDS011;29032;56.028;92.904;2024-03-22T19:12:05;33.07;;;15.60;;
42886;SDS011;29032;56.028;92.904;2024-03-22T19:17:08;28.57;;;13.70;;
42886;SDS011;29032;56.028;92.904;2024-03-22T19:22:11;27.57;;;12.20;;
42886;SDS011;29032;56.028;92.904;2024-03-22T19:27:13;29.97;;;12.40;;
42886;SDS011;29032;56.028;92.904;2024-03-22T19:32:15;23.67;;;12.27;;
42886;SDS011;29032;56.028;92.904;2024-03-22T19:37:19;24.30;;;12.03;;
42886;SDS011;29032;56.028;92.904;2024-03-22T19:42:21;31.53;;;14.57;;
42886;SDS011;29032;56.028;92.904;2024-03-22T19:47:23;27.67;;;13.43;;
42886;SDS011;29032;56.028;92.904;2024-03-22T19:58:06;34.85;;;15.98;;
42886;SDS011;29032;56.028;92.904;2024-03-22T20:03:26;33.50;;;17.53;;
42886;SDS011;29032;56.028;92.904;2024-03-22T20:08:29;32.30;;;16.13;;
42886;SDS011;29032;56.028;92.904;2024-03-22T20:13:32;35.37;;;18.07;;
42886;SDS011;29032;56.028;92.904;2024-03-22T20:23:54;39.47;;;19.13;;
42886;SDS011;29032;56.028;92.904;2024-03-22T20:28:58;34.83;;;19.17;;
42886;SDS011;29032;56.028;92.904;2024-03-22T20:34:00;39.20;;;16.63;;
